Time;durP1;ratioP1;P1;durP2;ratioP2;P2;SDS_P1;SDS_P2;PMS_P1;PMS_P2;Temp;Humidity;BMP_temperature;BMP_pressure;BME280_temperature;BME280_humidity;BME280_pressure;Samples;Min_cycle;Max_cycle;Signal;HPM_P1;HPM_P2
2023/01/08 00:01:12;;;;;;;4.13;2.90;;;8.90;99.90;;;9.35;100.00;97395.03;5060490;28;20522;-79
2023/01/08 00:03:45;;;;;;;4.70;3.20;;;8.90;99.90;;;9.34;100.00;97389.97;5062420;28;20535;-79
2023/01/08 00:06:18;;;;;;;3.73;3.07;;;8.90;99.90;;;9.33;100.00;97383.19;5054854;28;20482;-79
2023/01/08 00:08:47;;;;;;;4.87;3.10;;;8.90;99.90;;;9.34;100.00;97380.34;5055631;28;20461;-80
2023/01/08 00:11:17;;;;;;;5.83;3.77;;;8.90;99.90;;;9.36;100.00;97375.75;5056369;28;21017;-79
2023/01/08 00:13:47;;;;;;;3.90;3.00;;;9.00;99.90;;;9.36;100.00;97373.16;5055391;28;20514;-78
2023/01/08 00:16:20;;;;;;;4.70;3.53;;;8.90;99.90;;;9.39;100.00;97366.72;5056224;28;21437;-79
2023/01/08 00:18:51;;;;;;;7.50;2.90;;;9.00;99.90;;;9.40;100.00;97368.34;5056443;28;21035;-80
2023/01/08 00:21:21;;;;;;;5.50;3.43;;;9.00;99.90;;;9.42;100.00;97372.38;5055632;28;20491;-79
2023/01/08 00:23:50;;;;;;;3.80;3.20;;;9.00;99.90;;;9.42;100.00;97355.91;5052976;28;20496;-79
2023/01/08 00:26:21;;;;;;;4.90;3.40;;;9.00;99.90;;;9.43;100.00;97358.31;5056753;28;20455;-79
2023/01/08 00:28:50;;;;;;;7.07;3.53;;;9.00;99.90;;;9.42;100.00;97354.09;5056892;28;20549;-79
2023/01/08 00:31:19;;;;;;;4.17;3.00;;;8.90;99.90;;;9.45;100.00;97358.91;5054347;28;20470;-79
2023/01/08 00:33:50;;;;;;;4.43;3.10;;;9.00;99.90;;;9.44;100.00;97354.69;5055724;28;20556;-79
2023/01/08 00:36:19;;;;;;;3.63;2.67;;;9.00;99.90;;;9.46;100.00;97365.75;5056447;28;20468;-79
2023/01/08 00:38:49;;;;;;;4.20;2.70;;;9.00;99.90;;;9.47;100.00;97361.34;5055908;28;20553;-77
2023/01/08 00:41:18;;;;;;;3.03;2.80;;;9.10;99.90;;;9.46;100.00;97357.13;5052448;28;20991;-79
2023/01/08 00:43:49;;;;;;;3.03;2.53;;;9.10;99.90;;;9.47;100.00;97343.09;5054961;28;21010;-79
2023/01/08 00:46:18;;;;;;;2.83;2.60;;;9.10;99.90;;;9.48;100.00;97355.09;5055539;28;20471;-80
2023/01/08 00:48:50;;;;;;;3.80;2.90;;;9.00;99.90;;;9.49;100.00;97352.31;5056487;28;20464;-79
2023/01/08 00:51:20;;;;;;;3.00;2.57;;;9.10;99.90;;;9.47;100.00;97349.09;5058751;28;20453;-79
2023/01/08 00:53:49;;;;;;;3.03;2.73;;;9.10;99.90;;;9.49;100.00;97347.09;5057550;28;20578;-79
2023/01/08 00:56:20;;;;;;;5.90;2.50;;;9.10;99.90;;;9.48;100.00;97350.69;5057159;28;20467;-79
2023/01/08 00:58:50;;;;;;;2.73;2.53;;;9.10;99.90;;;9.49;100.00;97354.13;5054582;28;20974;-79
2023/01/08 01:01:19;;;;;;;2.93;2.60;;;9.10;99.90;;;9.52;100.00;97357.13;5056946;28;20464;-79
2023/01/08 01:03:50;;;;;;;3.30;2.70;;;9.10;99.90;;;9.50;100.00;97356.53;5059300;28;20548;-79
2023/01/08 01:06:20;;;;;;;8.53;3.13;;;9.10;99.90;;;9.51;100.00;97347.69;5058866;28;20465;-79
2023/01/08 01:08:49;;;;;;;3.00;2.70;;;9.10;99.90;;;9.56;100.00;97342.69;5057709;28;20461;-79
2023/01/08 01:11:21;;;;;;;2.43;2.23;;;9.20;99.90;;;9.55;100.00;97346.28;5057564;28;20464;-79
2023/01/08 01:13:52;;;;;;;3.40;2.30;;;9.10;99.90;;;9.55;100.00;97346.28;5057327;28;20472;-78
2023/01/08 01:16:22;;;;;;;3.03;2.30;;;9.10;99.90;;;9.56;100.00;97332.25;5056700;28;20469;-79
2023/01/08 01:18:55;;;;;;;8.03;2.90;;;9.10;99.90;;;9.56;100.00;97332.25;5057657;28;20456;-79
2023/01/08 01:21:28;;;;;;;2.80;2.37;;;9.10;99.90;;;9.57;100.00;97326.03;5056465;28;20472;-79
2023/01/08 01:24:01;;;;;;;2.90;2.47;;;9.10;99.90;;;9.57;100.00;97330.44;5055432;28;21034;-79
2023/01/08 01:26:30;;;;;;;2.23;2.03;;;9.10;99.90;;;9.57;100.00;97318.22;5054755;28;20558;-79
2023/01/08 01:29:01;;;;;;;2.30;2.10;;;9.20;99.90;;;9.58;100.00;97319.78;5054253;28;20525;-79
2023/01/08 01:31:32;;;;;;;2.40;2.20;;;9.20;99.90;;;9.56;100.00;97321.00;5054146;28;20462;-79
2023/01/08 01:34:04;;;;;;;2.70;2.40;;;9.20;99.90;;;9.56;100.00;97316.59;5056250;28;20456;-79
2023/01/08 01:36:34;;;;;;;2.40;2.20;;;9.20;99.90;;;9.55;100.00;97312.38;5057514;28;20826;-79
2023/01/08 01:39:04;;;;;;;2.67;2.27;;;9.10;99.90;;;9.51;100.00;97308.53;5053333;28;20513;-79
2023/01/08 01:41:40;;;;;;;2.50;2.10;;;9.10;99.90;;;9.50;100.00;97312.19;5054554;28;20492;-79
2023/01/08 01:44:39;;;;;;;2.20;2.00;;;9.10;99.90;;;9.52;100.00;97311.97;5054185;28;20499;-79
2023/01/08 01:47:22;;;;;;;3.70;2.37;;;9.10;99.90;;;9.51;100.00;97315.59;5058926;28;21352;-79
2023/01/08 01:50:00;;;;;;;3.20;1.90;;;9.10;99.90;;;9.53;100.00;97311.78;5056955;28;20472;-79
2023/01/08 01:52:36;;;;;;;2.47;2.10;;;9.20;99.90;;;9.52;100.00;97307.56;5052743;28;20534;-79
2023/01/08 01:55:09;;;;;;;2.07;1.77;;;9.10;99.90;;;9.47;100.00;97312.56;5058222;28;20505;-79
2023/01/08 01:57:39;;;;;;;4.10;2.07;;;9.10;99.90;;;9.49;100.00;97309.75;5057343;28;20487;-79
2023/01/08 02:00:11;;;;;;;3.30;2.30;;;9.10;99.90;;;9.47;100.00;97303.94;5056192;28;20519;-79
2023/01/08 02:02:40;;;;;;;4.80;1.80;;;9.10;99.90;;;9.49;100.00;97305.34;5056401;28;22162;-79
2023/01/08 02:05:12;;;;;;;2.10;1.90;;;9.10;99.90;;;9.52;100.00;97306.75;5055177;28;21029;-79
2023/01/08 02:07:53;;;;;;;4.13;2.10;;;9.10;99.90;;;9.51;100.00;97295.50;5055772;28;20559;-79
2023/01/08 02:10:37;;;;;;;2.20;1.80;;;9.10;99.90;;;9.51;100.00;97300.72;5055600;28;20535;-80
2023/01/08 02:13:16;;;;;;;2.13;1.50;;;9.10;99.90;;;9.51;100.00;97298.09;5054598;28;20517;-78
2023/01/08 02:15:57;;;;;;;2.23;1.97;;;9.10;99.90;;;9.50;100.00;97288.69;5055143;28;20527;-79
2023/01/08 02:18:37;;;;;;;2.60;1.87;;;9.10;99.90;;;9.51;100.00;97292.88;5055130;28;20484;-79
2023/01/08 02:21:14;;;;;;;3.20;1.93;;;9.10;99.90;;;9.53;100.00;97285.69;5059980;28;20467;-79
2023/01/08 02:23:49;;;;;;;2.20;2.00;;;9.10;99.90;;;9.53;100.00;97279.66;5057656;28;20587;-79
2023/01/08 02:26:26;;;;;;;3.97;2.20;;;9.10;99.90;;;9.50;100.00;97280.06;5058968;28;20459;-79
2023/01/08 02:29:04;;;;;;;2.53;1.87;;;9.10;99.90;;;9.50;100.00;97270.41;5057539;28;20448;-79
2023/01/08 02:31:35;;;;;;;2.57;1.97;;;9.10;99.90;;;9.49;100.00;97268.81;5055953;28;20461;-79
2023/01/08 02:34:06;;;;;;;2.20;1.97;;;9.10;99.90;;;9.50;100.00;97269.63;5060117;28;20460;-79
2023/01/08 02:36:41;;;;;;;3.20;2.20;;;9.00;99.90;;;9.49;100.00;97266.19;5059747;28;20460;-79
2023/01/08 02:39:28;;;;;;;2.70;2.10;;;9.10;99.90;;;9.50;100.00;97259.97;5059471;28;20460;-79
2023/01/08 02:42:09;;;;;;;2.70;1.80;;;9.00;99.90;;;9.51;100.00;97252.97;5057607;28;20516;-79
2023/01/08 02:44:54;;;;;;;3.03;2.13;;;9.00;99.90;;;9.50;100.00;97254.75;5057307;28;21116;-79
2023/01/08 02:47:32;;;;;;;3.10;1.80;;;9.10;99.90;;;9.48;100.00;97256.75;5061545;28;20472;-79
2023/01/08 02:50:11;;;;;;;2.83;2.10;;;9.10;99.90;;;9.50;100.00;97249.53;5063742;28;20444;-79
2023/01/08 02:52:53;;;;;;;2.23;1.93;;;9.10;99.90;;;9.49;100.00;97253.16;5061488;28;20515;-79
2023/01/08 02:55:27;;;;;;;8.77;1.97;;;9.00;99.90;;;9.48;100.00;97238.47;5059708;28;21178;-79
2023/01/08 02:58:01;;;;;;;1.90;1.80;;;9.00;99.90;;;9.49;100.00;97240.09;5059604;28;20873;-79
2023/01/08 03:00:31;;;;;;;4.77;2.03;;;9.10;99.90;;;9.49;100.00;97244.50;5061700;28;20556;-79
2023/01/08 03:03:11;;;;;;;4.20;2.10;;;9.00;99.90;;;9.48;100.00;97240.28;5060648;28;20456;-79
2023/01/08 03:05:48;;;;;;;2.50;1.93;;;9.00;99.90;;;9.47;100.00;97220.44;5059586;28;20586;-79
2023/01/08 03:08:20;;;;;;;1.93;1.83;;;9.10;99.90;;;9.43;100.00;97217.41;5061733;28;20459;-79
2023/01/08 03:11:01;;;;;;;1.60;1.50;;;9.00;99.90;;;9.44;100.00;97210.41;5061369;28;20904;-79
2023/01/08 03:13:42;;;;;;;2.63;2.10;;;8.90;99.90;;;9.44;100.00;97208.56;5058414;28;20461;-79
2023/01/08 03:16:17;;;;;;;2.60;1.83;;;8.80;99.90;;;9.44;100.00;97203.34;5056796;28;20999;-79
2023/01/08 03:18:54;;;;;;;2.10;1.83;;;8.80;99.90;;;9.44;100.00;97203.34;5056389;28;20879;-79
2023/01/08 03:21:25;;;;;;;2.30;1.90;;;8.90;99.90;;;9.47;100.00;97207.38;5056960;28;20472;-79
2023/01/08 03:23:57;;;;;;;2.07;1.43;;;8.90;99.90;;;9.43;100.00;97196.53;5059199;28;20469;-79
2023/01/08 03:26:29;;;;;;;1.87;1.57;;;8.90;99.90;;;9.43;100.00;97201.75;5058198;28;21042;-79
2023/01/08 03:29:01;;;;;;;2.30;1.73;;;8.80;99.90;;;9.43;100.00;97199.16;5059397;28;20707;-79
2023/01/08 03:31:35;;;;;;;1.90;1.60;;;8.90;99.90;;;9.42;100.00;97199.34;5056759;28;20551;-79
2023/01/08 03:34:07;;;;;;;4.97;2.30;;;8.80;99.90;;;9.44;100.00;97205.19;5059843;28;20834;-79
2023/01/08 03:36:41;;;;;;;2.07;1.90;;;8.90;99.90;;;9.42;100.00;97205.38;5060210;28;20495;-79
2023/01/08 03:39:19;;;;;;;1.80;1.50;;;8.80;99.90;;;9.43;100.00;97209.59;5060258;28;20453;-79
2023/01/08 03:41:49;;;;;;;2.67;1.63;;;8.90;99.90;;;9.41;100.00;97203.75;5056283;28;20512;-80
2023/01/08 03:44:20;;;;;;;1.73;1.63;;;8.90;99.90;;;9.43;100.00;97206.19;5058715;28;20487;-79
2023/01/08 03:46:55;;;;;;;2.00;1.80;;;8.90;99.90;;;9.44;100.00;97208.56;5058633;28;20861;-79
2023/01/08 03:49:29;;;;;;;3.73;1.90;;;8.90;99.90;;;9.43;100.00;97214.81;5058193;28;20967;-79
2023/01/08 03:51:58;;;;;;;8.43;1.83;;;9.00;99.90;;;9.41;100.00;97214.19;5057822;28;20468;-79
2023/01/08 03:54:33;;;;;;;10.50;2.17;;;8.90;99.90;;;9.39;100.00;97216.22;5057098;28;21432;-79
2023/01/08 03:57:03;;;;;;;2.60;1.73;;;8.90;99.90;;;9.41;100.00;97213.38;5058418;28;20459;-79
2023/01/08 03:59:34;;;;;;;1.77;1.43;;;8.90;99.90;;;9.38;100.00;97205.97;5053889;28;20461;-79
2023/01/08 04:02:04;;;;;;;2.47;1.50;;;9.00;99.90;;;9.34;100.00;97205.56;5054992;28;20470;-79
2023/01/08 04:04:34;;;;;;;2.23;1.30;;;8.90;99.90;;;9.36;100.00;97207.97;5056321;28;20489;-79
2023/01/08 04:07:04;;;;;;;1.57;1.47;;;8.90;99.90;;;9.35;100.00;97198.53;5057609;28;20460;-80
2023/01/08 04:09:33;;;;;;;2.07;1.50;;;8.90;99.90;;;9.33;100.00;97195.34;5056760;28;20495;-79
2023/01/08 04:12:03;;;;;;;3.10;1.37;;;8.80;99.90;;;9.35;100.00;97188.09;5057469;28;20464;-79
2023/01/08 04:14:33;;;;;;;4.50;1.50;;;8.90;99.90;;;9.37;100.00;97186.13;5052712;28;20465;-79
2023/01/08 04:17:04;;;;;;;2.07;1.27;;;8.90;99.90;;;9.34;100.00;97184.69;5054075;28;20513;-79
2023/01/08 04:19:32;;;;;;;3.10;1.47;;;8.80;99.90;;;9.37;100.00;97191.34;5057317;28;20898;-79
2023/01/08 04:22:02;;;;;;;3.73;1.47;;;8.90;99.90;;;9.34;100.00;97184.69;5057678;28;20571;-79
2023/01/08 04:24:32;;;;;;;1.77;1.67;;;8.90;99.90;;;9.33;100.00;97183.09;5057172;28;20557;-79
2023/01/08 04:27:01;;;;;;;2.17;1.50;;;8.90;99.90;;;9.32;100.00;97176.28;5057323;28;20469;-79
2023/01/08 04:29:30;;;;;;;1.83;1.37;;;8.80;99.90;;;9.32;100.00;97173.66;5057919;28;20461;-79
2023/01/08 04:32:02;;;;;;;5.00;1.70;;;8.80;99.90;;;9.29;100.00;97166.25;5058618;28;20498;-79
2023/01/08 04:34:32;;;;;;;2.90;1.40;;;8.70;99.90;;;9.31;100.00;97160.81;5058266;28;21537;-80
2023/01/08 04:37:02;;;;;;;1.63;1.50;;;8.70;99.90;;;9.32;100.00;97163.22;5054999;28;20518;-79
2023/01/08 04:39:33;;;;;;;1.50;1.40;;;8.70;99.90;;;9.31;100.00;97159.00;5055791;28;20476;-79
2023/01/08 04:42:03;;;;;;;1.40;1.30;;;8.80;99.90;;;9.31;100.00;97161.59;5055642;28;20467;-79
2023/01/08 04:44:33;;;;;;;1.80;1.67;;;8.70;99.90;;;9.32;100.00;97171.06;5054631;28;20492;-79
2023/01/08 04:47:04;;;;;;;2.07;1.40;;;8.70;99.90;;;9.32;100.00;97165.84;5057722;28;20844;-78
2023/01/08 04:49:35;;;;;;;1.80;1.40;;;8.80;99.90;;;9.32;100.00;97168.44;5056795;28;20896;-79
2023/01/08 04:52:05;;;;;;;1.60;1.30;;;8.70;99.90;;;9.30;100.00;97165.22;5056701;28;20493;-79
2023/01/08 04:54:35;;;;;;;2.50;1.43;;;8.80;99.90;;;9.30;100.00;97160.00;5057835;28;21000;-78
2023/01/08 04:57:06;;;;;;;1.57;1.20;;;8.80;99.90;;;9.29;100.00;97162.81;5058529;28;20500;-79
2023/01/08 04:59:36;;;;;;;1.43;1.30;;;8.70;99.90;;;9.30;100.00;97165.22;5057794;28;20472;-79
2023/01/08 05:02:07;;;;;;;1.90;1.40;;;8.80;99.90;;;9.26;100.00;97163.22;5056538;28;20519;-79
2023/01/08 05:04:36;;;;;;;1.50;1.40;;;8.70;99.90;;;9.28;100.00;97162.00;5057956;28;20522;-79
2023/01/08 05:07:06;;;;;;;2.70;1.70;;;8.70;99.90;;;9.30;100.00;97154.78;5058013;28;20538;-79
2023/01/08 05:09:37;;;;;;;1.50;1.40;;;8.70;99.90;;;9.29;100.00;97163.63;5056566;28;21222;-79
2023/01/08 05:12:07;;;;;;;1.67;1.30;;;8.80;99.90;;;9.29;100.00;97173.25;5056860;28;20880;-79
2023/01/08 05:14:37;;;;;;;1.53;1.43;;;8.80;99.90;;;9.27;100.00;97172.63;5057378;28;20822;-80
2023/01/08 05:17:08;;;;;;;1.43;1.33;;;8.90;99.90;;;9.26;100.00;97168.44;5055228;28;20472;-79
2023/01/08 05:19:38;;;;;;;2.00;1.37;;;8.80;99.90;;;9.21;100.00;97161.22;5052288;28;20465;-80
2023/01/08 05:22:07;;;;;;;1.60;1.50;;;8.80;99.90;;;9.22;100.00;97159.41;5057355;28;20840;-79
2023/01/08 05:24:38;;;;;;;1.97;1.30;;;8.80;99.90;;;9.23;100.00;97156.59;5056195;28;20552;-79
2023/01/08 05:27:07;;;;;;;2.03;1.30;;;8.80;99.90;;;9.21;100.00;97160.41;5053225;28;20493;-78
2023/01/08 05:29:36;;;;;;;2.27;1.20;;;8.70;99.90;;;9.21;100.00;97161.22;5054976;28;20882;-79
2023/01/08 05:32:15;;;;;;;5.50;1.50;;;8.70;99.90;;;9.21;100.00;97166.41;5053596;28;20475;-79
2023/01/08 05:34:45;;;;;;;1.30;1.20;;;8.70;99.90;;;9.21;100.00;97161.22;5054954;28;20519;-79
2023/01/08 05:37:16;;;;;;;1.57;1.37;;;8.70;99.90;;;9.23;100.00;97158.41;5057144;28;21014;-79
2023/01/08 05:39:47;;;;;;;1.20;1.10;;;8.80;99.90;;;9.22;100.00;97156.81;5053664;28;20475;-79
2023/01/08 05:42:17;;;;;;;1.70;1.60;;;8.70;99.90;;;9.24;100.00;97152.97;5055350;28;20974;-79
2023/01/08 05:44:48;;;;;;;1.40;1.30;;;8.70;99.90;;;9.25;100.00;97149.38;5053414;28;20474;-80
2023/01/08 05:47:20;;;;;;;2.30;1.23;;;8.80;99.90;;;9.26;100.00;97153.59;5054519;28;20842;-79
2023/01/08 05:49:49;;;;;;;1.57;1.10;;;8.80;99.90;;;9.25;100.00;97146.78;5055008;28;20518;-79
2023/01/08 05:52:19;;;;;;;2.70;1.70;;;8.70;99.90;;;9.26;100.00;97143.16;5054037;28;20476;-79
2023/01/08 05:54:50;;;;;;;1.63;1.50;;;8.70;99.90;;;9.25;100.00;97144.16;5053472;28;20503;-79
2023/01/08 05:57:20;;;;;;;1.70;1.60;;;8.70;99.90;;;9.26;100.00;97142.34;5055140;28;20464;-79
2023/01/08 05:59:50;;;;;;;1.40;1.30;;;8.60;99.90;;;9.26;100.00;97148.38;5053055;28;20997;-79
2023/01/08 06:02:21;;;;;;;4.70;1.60;;;8.60;99.90;;;9.27;100.00;97143.94;5054138;28;20541;-77
2023/01/08 06:04:51;;;;;;;6.20;1.67;;;8.70;99.90;;;9.28;100.00;97145.56;5049520;28;20587;-80
2023/01/08 06:07:21;;;;;;;2.07;1.60;;;8.70;99.90;;;9.27;100.00;97141.34;5053202;28;20468;-80
2023/01/08 06:09:52;;;;;;;3.33;1.80;;;8.80;99.90;;;9.24;100.00;97142.53;5053969;28;20864;-80
2023/01/08 06:12:22;;;;;;;2.03;1.77;;;8.80;99.90;;;9.21;100.00;97140.34;5054967;28;20460;-79
2023/01/08 06:14:52;;;;;;;2.30;1.70;;;8.70;99.90;;;9.22;100.00;97141.94;5055116;28;20543;-80
2023/01/08 06:17:23;;;;;;;62.03;26.30;;;8.70;99.90;;;9.23;100.00;97156.59;5053190;28;20836;-79
2023/01/08 06:19:53;;;;;;;4.73;3.50;;;8.70;99.90;;;9.21;100.00;97156.00;5052331;28;21021;-79
2023/01/08 06:22:23;;;;;;;3.43;2.40;;;8.70;99.90;;;9.20;100.00;97149.16;5052949;28;20472;-79
2023/01/08 06:24:54;;;;;;;1.87;1.77;;;8.70;99.90;;;9.19;100.00;97150.19;5053214;28;20468;-78
2023/01/08 06:27:26;;;;;;;5.43;1.43;;;8.60;99.90;;;9.22;100.00;97151.59;5054363;28;20535;-79
2023/01/08 06:29:56;;;;;;;3.23;1.90;;;8.70;99.90;;;9.23;100.00;97147.97;5053488;28;20479;-78
2023/01/08 06:32:27;;;;;;;1.30;1.20;;;8.70;99.90;;;9.22;100.00;97152.38;5055023;28;20525;-78
2023/01/08 06:34:58;;;;;;;1.50;1.30;;;8.70;99.90;;;9.22;100.00;97155.00;5056805;28;20480;-78
2023/01/08 06:37:28;;;;;;;1.33;1.20;;;8.60;99.90;;;9.26;100.00;97158.00;5054932;28;20745;-78
2023/01/08 06:40:01;;;;;;;1.87;1.30;;;8.70;99.90;;;9.22;100.00;97155.00;5054391;28;20480;-78
2023/01/08 06:42:31;;;;;;;1.67;1.30;;;8.70;99.90;;;9.24;100.00;97152.97;5055822;28;20456;-78
2023/01/08 06:45:00;;;;;;;1.47;1.37;;;8.70;99.90;;;9.23;100.00;97154.00;5055235;28;20453;-78
2023/01/08 06:47:33;;;;;;;1.37;1.27;;;8.70;99.90;;;9.22;100.00;97157.59;5053492;28;20580;-78
2023/01/08 06:50:03;;;;;;;2.53;1.17;;;8.70;99.90;;;9.21;100.00;97163.81;5053556;28;20487;-78
2023/01/08 06:52:33;;;;;;;3.43;1.40;;;8.70;99.90;;;9.22;100.00;97162.81;5055917;28;21491;-78
2023/01/08 06:55:03;;;;;;;1.23;1.10;;;8.80;99.90;;;9.22;100.00;97162.00;5055280;28;20548;-78
2023/01/08 06:57:34;;;;;;;1.87;1.43;;;8.70;99.90;;;9.22;100.00;97162.81;5053823;28;20464;-79
2023/01/08 07:00:10;;;;;;;2.40;1.20;;;8.80;99.90;;;9.22;100.00;97152.38;5054462;28;20540;-78
2023/01/08 07:02:41;;;;;;;1.40;1.30;;;8.70;99.90;;;9.22;100.00;97151.59;5049591;28;20471;-79
2023/01/08 07:05:12;;;;;;;2.73;2.10;;;8.80;99.90;;;9.20;100.00;97151.00;5052082;28;20468;-78
2023/01/08 07:07:42;;;;;;;2.47;1.40;;;8.70;99.90;;;9.20;100.00;97151.78;5052986;28;20497;-78
2023/01/08 07:10:12;;;;;;;1.13;1.07;;;8.70;99.90;;;9.18;100.00;97159.00;5055661;28;20989;-78
2023/01/08 07:12:43;;;;;;;1.30;1.07;;;8.70;99.90;;;9.19;100.00;97163.22;5055503;28;20503;-78
2023/01/08 07:15:12;;;;;;;1.73;1.10;;;8.80;99.90;;;9.19;100.00;97167.63;5054916;28;20474;-79
2023/01/08 07:17:43;;;;;;;3.07;1.20;;;8.80;99.90;;;9.17;100.00;97167.81;5053443;28;20489;-78
2023/01/08 07:20:13;;;;;;;5.33;1.10;;;8.70;99.90;;;9.18;100.00;97173.84;5055566;28;20464;-78
2023/01/08 07:22:43;;;;;;;1.20;1.10;;;8.80;99.90;;;9.14;100.00;97170.03;5056760;28;20464;-78
2023/01/08 07:25:14;;;;;;;1.53;1.00;;;8.80;99.90;;;9.08;100.00;97162.00;5055710;28;20469;-78
2023/01/08 07:27:45;;;;;;;98.70;48.03;;;8.60;99.90;;;9.12;100.00;97165.03;5053829;28;20892;-78
2023/01/08 07:30:16;;;;;;;2.43;1.70;;;8.60;99.90;;;9.14;100.00;97172.63;5054958;28;20541;-78
2023/01/08 07:33:00;;;;;;;1.77;1.20;;;8.70;99.90;;;9.12;100.00;97172.84;5058084;28;20456;-78
2023/01/08 07:35:30;;;;;;;1.80;1.17;;;8.60;99.90;;;9.13;100.00;97166.59;5055882;28;20463;-78
2023/01/08 07:37:59;;;;;;;1.17;1.00;;;8.60;99.90;;;9.06;100.00;97163.19;5053625;28;20989;-78
2023/01/08 07:40:30;;;;;;;1.20;1.03;;;8.60;99.90;;;9.07;100.00;97164.81;5053449;28;20575;-78
2023/01/08 07:43:00;;;;;;;1.10;1.00;;;8.60;99.90;;;9.05;100.00;97166.81;5054343;28;20860;-77
2023/01/08 07:45:32;;;;;;;1.10;1.00;;;8.60;99.90;;;9.05;100.00;97175.44;5052555;28;21242;-78
2023/01/08 07:48:03;;;;;;;1.00;0.90;;;8.60;99.90;;;9.00;100.00;97161.38;5054132;28;20553;-78
2023/01/08 07:50:33;;;;;;;1.30;0.97;;;8.50;99.90;;;9.01;100.00;97160.38;5056419;28;20457;-78
2023/01/08 07:53:03;;;;;;;4.13;1.10;;;8.60;99.90;;;9.03;100.00;97167.00;5055672;28;20528;-78
2023/01/08 07:55:33;;;;;;;1.23;0.90;;;8.60;99.90;;;9.01;100.00;97173.44;5052970;28;21023;-77
2023/01/08 07:58:08;;;;;;;2.20;0.90;;;8.50;99.90;;;9.02;100.00;97173.22;5055977;28;22442;-78
2023/01/08 08:00:39;;;;;;;1.20;1.10;;;8.50;99.90;;;9.00;100.00;97158.78;5056808;28;20474;-78
2023/01/08 08:03:11;;;;;;;1.40;1.30;;;8.60;99.90;;;8.96;100.00;97170.59;5055154;28;20476;-78
2023/01/08 08:05:41;;;;;;;1.53;1.00;;;8.50;99.90;;;8.98;100.00;97164.22;5053653;28;20566;-78
2023/01/08 08:08:13;;;;;;;1.20;1.10;;;8.50;99.90;;;8.98;100.00;97166.00;5052431;28;20906;-78
2023/01/08 08:10:43;;;;;;;1.20;1.10;;;8.50;99.90;;;8.98;100.00;97173.81;5053633;28;20460;-77
2023/01/08 08:13:13;;;;;;;1.43;1.10;;;8.50;99.90;;;8.94;100.00;97168.22;5053997;28;20479;-78
2023/01/08 08:15:43;;;;;;;1.07;1.00;;;8.50;99.90;;;8.96;100.00;97168.81;5052576;28;20509;-77
2023/01/08 08:18:14;;;;;;;1.13;1.07;;;8.50;99.90;;;8.96;100.00;97165.38;5053661;28;20559;-78
2023/01/08 08:20:44;;;;;;;7.70;1.30;;;8.40;99.90;;;8.99;100.00;97157.16;5054459;28;20476;-78
2023/01/08 08:23:15;;;;;;;1.40;1.20;;;8.50;99.90;;;8.97;100.00;97161.78;5051810;28;20554;-77
2023/01/08 08:25:44;;;;;;;1.40;1.30;;;8.40;99.90;;;8.96;100.00;97157.56;5052582;28;20501;-78
2023/01/08 08:28:14;;;;;;;1.77;1.03;;;8.50;99.90;;;8.99;100.00;97164.97;5053006;28;20504;-77
2023/01/08 08:30:43;;;;;;;1.20;1.10;;;8.50;99.90;;;8.99;100.00;97164.97;5052737;28;20464;-78
2023/01/08 08:33:14;;;;;;;1.80;1.60;;;8.50;99.90;;;9.01;100.00;97165.59;5056617;28;20489;-78
2023/01/08 08:35:50;;;;;;;2.87;1.57;;;8.50;99.90;;;8.98;100.00;97150.38;5052939;28;20738;-78
2023/01/08 08:38:18;;;;;;;2.27;1.40;;;8.50;99.90;;;8.95;100.00;97148.16;5054157;28;20963;-74
2023/01/08 08:40:52;;;;;;;1.43;1.30;;;8.40;99.90;;;8.99;100.00;97159.78;5056441;28;20888;-78
2023/01/08 08:43:22;;;;;;;1.50;1.40;;;8.50;99.90;;;8.99;100.00;97149.34;5055968;28;20849;-78
2023/01/08 08:45:52;;;;;;;2.63;1.47;;;8.50;99.90;;;8.99;100.00;97157.16;5053751;28;20533;-78
2023/01/08 08:48:23;;;;;;;2.17;1.33;;;8.50;99.90;;;9.02;100.00;97159.41;5055844;28;21082;-78
2023/01/08 08:50:53;;;;;;;1.30;1.10;;;8.50;99.90;;;9.02;100.00;97151.56;5053943;28;20492;-78
2023/01/08 08:53:22;;;;;;;1.10;1.00;;;8.60;99.90;;;9.00;100.00;97149.16;5052527;28;20473;-78
2023/01/08 08:55:59;;;;;;;1.57;1.07;;;8.50;99.90;;;9.02;100.00;97151.56;5052548;28;20464;-78
2023/01/08 08:58:29;;;;;;;1.30;1.20;;;8.60;99.90;;;9.00;100.00;97150.97;5053714;28;20550;-78
2023/01/08 09:01:03;;;;;;;1.40;1.30;;;8.60;99.90;;;9.00;100.00;97154.38;5052639;28;20492;-78
2023/01/08 09:03:34;;;;;;;1.00;1.00;;;8.50;99.90;;;8.99;100.00;97151.94;5054685;28;20518;-79
2023/01/08 09:06:03;;;;;;;3.97;3.27;;;8.50;99.90;;;8.99;100.00;97152.75;5055673;28;20886;-78
2023/01/08 09:08:33;;;;;;;1.30;1.20;;;8.50;99.90;;;8.99;100.00;97155.38;5053666;28;20556;-78
2023/01/08 09:11:04;;;;;;;6.13;1.00;;;8.50;99.90;;;8.99;100.00;97152.75;5054713;28;21126;-78
2023/01/08 09:13:34;;;;;;;1.30;1.20;;;8.50;99.90;;;9.02;100.00;97151.56;5052551;28;20468;-78
2023/01/08 09:16:04;;;;;;;4.20;1.50;;;8.50;99.90;;;9.03;100.00;97148.75;5053242;28;20478;-78
2023/01/08 09:18:35;;;;;;;4.30;1.60;;;8.60;99.90;;;9.02;100.00;97148.97;5057323;28;20464;-78
2023/01/08 09:21:06;;;;;;;1.10;1.00;;;8.50;99.90;;;9.02;100.00;97156.78;5053128;28;20456;-78
2023/01/08 09:23:35;;;;;;;1.40;1.10;;;8.50;99.90;;;9.02;100.00;97146.38;5054561;28;20552;-77
2023/01/08 09:26:06;;;;;;;1.33;1.10;;;8.50;99.90;;;9.00;100.00;97143.94;5056950;28;20471;-78
2023/01/08 09:28:36;;;;;;;3.27;1.20;;;8.50;99.90;;;9.03;100.00;97138.31;5054765;28;20495;-79
2023/01/08 09:31:06;;;;;;;2.60;1.40;;;8.50;99.90;;;9.03;100.00;97134.91;5056479;28;20894;-78
2023/01/08 09:33:36;;;;;;;2.70;1.20;;;8.60;99.90;;;9.05;100.00;97136.34;5057207;28;20934;-78
2023/01/08 09:36:11;;;;;;;1.40;1.30;;;8.60;99.90;;;9.04;100.00;97134.72;5055099;28;20464;-77
2023/01/08 09:38:43;;;;;;;1.33;1.23;;;8.50;99.90;;;9.09;100.00;97141.97;5055408;28;20856;-78
2023/01/08 09:41:21;;;;;;;2.00;1.20;;;8.60;99.90;;;9.07;100.00;97138.72;5054172;28;21033;-78
2023/01/08 09:43:55;;;;;;;2.20;2.00;;;8.70;99.90;;;9.07;100.00;97144.75;5056208;28;20521;-78
2023/01/08 09:46:28;;;;;;;1.70;1.60;;;8.60;99.90;;;9.09;100.00;97141.97;5055781;28;20464;-78
2023/01/08 09:49:04;;;;;;;1.57;1.47;;;8.60;99.90;;;9.12;100.00;97151.97;5056283;28;20531;-78
2023/01/08 09:51:37;;;;;;;1.63;1.47;;;8.50;99.90;;;9.14;100.00;97142.16;5055255;28;20467;-78
2023/01/08 09:54:14;;;;;;;1.50;1.30;;;8.50;99.90;;;9.17;100.00;97146.16;5055107;28;21188;-78
2023/01/08 09:56:46;;;;;;;1.57;1.40;;;8.60;99.90;;;9.22;100.00;97135.94;5055740;28;20457;-78
2023/01/08 09:59:19;;;;;;;2.40;1.60;;;8.70;99.90;;;9.23;100.00;97127.91;5055448;28;20456;-78
2023/01/08 10:01:48;;;;;;;1.43;1.20;;;8.70;99.90;;;9.25;100.00;97125.91;5056130;28;20968;-78
2023/01/08 10:04:22;;;;;;;2.30;1.87;;;8.70;99.90;;;9.27;100.00;97139.53;5055160;28;20468;-78
2023/01/08 10:06:55;;;;;;;1.37;1.27;;;8.70;99.90;;;9.28;100.00;97133.31;5053788;28;20465;-73
2023/01/08 10:09:29;;;;;;;45.30;16.13;;;8.70;99.90;;;9.31;100.00;97129.50;5050407;28;20490;-78
2023/01/08 10:12:03;;;;;;;4.57;2.60;;;8.70;99.90;;;9.32;100.00;97126.69;5051411;28;20469;-78
2023/01/08 10:14:37;;;;;;;3.27;1.70;;;8.70;99.90;;;9.35;100.00;97131.50;5054088;28;20552;-78
2023/01/08 10:17:23;;;;;;;2.53;1.87;;;8.80;99.90;;;9.39;100.00;97130.09;5050988;28;20468;-78
2023/01/08 10:19:54;;;;;;;1.30;1.20;;;8.90;99.90;;;9.37;100.00;97116.44;5052964;28;20519;-78
2023/01/08 10:22:25;;;;;;;1.60;1.50;;;8.90;99.90;;;9.37;100.00;97113.84;5053490;28;20461;-77
2023/01/08 10:25:10;;;;;;;2.30;1.37;;;8.90;99.90;;;9.35;100.00;97102.81;5053042;28;20464;-77
2023/01/08 10:27:49;;;;;;;1.63;1.53;;;9.00;99.90;;;9.39;100.00;97096.19;5051722;28;20487;-78
2023/01/08 10:30:23;;;;;;;3.30;2.07;;;9.00;99.90;;;9.38;100.00;97089.34;5052698;28;20494;-77
2023/01/08 10:32:56;;;;;;;1.53;1.40;;;8.90;99.90;;;9.38;100.00;97083.34;5054790;28;20469;-79
2023/01/08 10:35:37;;;;;;;1.53;1.40;;;9.00;99.90;;;9.38;100.00;97083.34;5052723;28;20452;-77
2023/01/08 10:38:07;;;;;;;1.40;1.30;;;8.90;99.90;;;9.36;100.00;97080.94;5053310;28;20578;-79
2023/01/08 10:40:41;;;;;;;2.40;1.53;;;9.00;99.90;;;9.36;100.00;97083.56;5053733;28;21056;-78
2023/01/08 10:43:18;;;;;;;1.67;1.50;;;9.00;99.90;;;9.34;100.00;97075.09;5056900;28;20938;-77
2023/01/08 10:45:59;;;;;;;1.40;1.30;;;8.90;99.90;;;9.36;100.00;97067.91;5053998;28;20567;-80